createdAt,value
2022-12-19T00:01:26.820Z,69.98
2022-12-19T00:03:57.063Z,70.06
2022-12-19T00:06:26.729Z,69.62
2022-12-19T00:09:00.365Z,69.77
2022-12-19T00:11:30.581Z,70.37
2022-12-19T00:14:00.126Z,70.25
2022-12-19T00:16:30.664Z,70.23
2022-12-19T00:19:01.538Z,70.59
2022-12-19T00:21:34.884Z,70.59
2022-12-19T00:24:20.076Z,71.20
2022-12-19T00:26:50.553Z,71.23
2022-12-19T00:29:20.233Z,70.89
2022-12-19T00:31:49.744Z,71.03
2022-12-19T00:34:19.274Z,70.82
2022-12-19T00:36:48.770Z,72.17
2022-12-19T00:39:20.787Z,72.48
2022-12-19T00:41:50.270Z,72.58
2022-12-19T00:44:19.740Z,72.45
2022-12-19T00:46:52.330Z,71.32
2022-12-19T00:49:22.658Z,71.06
2022-12-19T00:51:52.143Z,71.51
2022-12-19T00:54:24.237Z,71.47
2022-12-19T00:56:54.283Z,71.71
2022-12-19T00:59:26.805Z,72.52
2022-12-19T01:01:57.479Z,73.97
2022-12-19T01:04:28.848Z,73.27
2022-12-19T01:07:02.667Z,74.50
2022-12-19T01:09:35.667Z,73.59
2022-12-19T01:12:17.629Z,73.43
2022-12-19T01:14:47.128Z,73.98
2022-12-19T01:17:16.621Z,73.80
2022-12-19T01:19:46.094Z,74.07
2022-12-19T01:22:15.733Z,75.27
2022-12-19T01:24:48.091Z,76.41
2022-12-19T01:27:17.572Z,76.93
2022-12-19T01:29:52.513Z,77.59
2022-12-19T01:32:23.324Z,76.54
2022-12-19T01:34:52.794Z,76.52
2022-12-19T01:37:22.422Z,75.93
2022-12-19T01:39:54.483Z,75.49
2022-12-19T01:42:24.615Z,74.57
2022-12-19T01:45:33.459Z,73.64
2022-12-19T01:48:07.916Z,73.43
2022-12-19T01:50:40.396Z,73.72
2022-12-19T01:53:17.585Z,73.45
2022-12-19T01:55:50.215Z,74.72
2022-12-19T01:58:19.679Z,74.52
2022-12-19T02:00:49.158Z,75.53
2022-12-19T02:03:21.354Z,75.76
2022-12-19T02:05:50.800Z,75.15
2022-12-19T02:08:20.285Z,73.88
2022-12-19T02:10:52.449Z,74.47
2022-12-19T02:13:21.939Z,74.43
2022-12-19T02:15:54.884Z,74.78
2022-12-19T02:18:29.554Z,74.98
2022-12-19T02:21:25.919Z,74.73
2022-12-19T02:24:21.681Z,74.91
2022-12-19T02:27:17.348Z,74.41
2022-12-19T02:30:09.036Z,74.59
2022-12-19T02:32:44.120Z,73.72
2022-12-19T02:35:16.690Z,73.19
2022-12-19T02:37:47.921Z,73.07
2022-12-19T02:40:20.346Z,73.06
2022-12-19T02:42:51.555Z,73.40
2022-12-19T02:45:28.310Z,73.36
2022-12-19T02:48:04.464Z,73.68
2022-12-19T02:50:42.103Z,74.36
2022-12-19T02:53:12.372Z,73.58
2022-12-19T02:55:45.289Z,72.65
2022-12-19T03:01:45.865Z,73.73
2022-12-19T03:04:23.246Z,73.18
2022-12-19T03:06:54.902Z,72.38
2022-12-19T03:09:29.369Z,71.86
2022-12-19T03:12:00.418Z,72.19
2022-12-19T03:14:29.676Z,71.53
2022-12-19T03:16:59.271Z,70.85
2022-12-19T03:19:31.429Z,72.87
2022-12-19T03:22:01.013Z,73.67
2022-12-19T03:24:30.582Z,73.86
2022-12-19T03:27:04.171Z,74.88
2022-12-19T03:29:35.443Z,74.54
2022-12-19T03:32:06.327Z,74.61
2022-12-19T03:34:41.125Z,74.19
2022-12-19T03:37:13.277Z,75.97
2022-12-19T03:39:42.877Z,76.39
2022-12-19T03:42:25.081Z,76.73
2022-12-19T03:44:54.825Z,77.17
2022-12-19T03:47:26.601Z,77.92
2022-12-19T03:49:58.757Z,77.52
2022-12-19T03:52:30.534Z,78.18
2022-12-19T03:55:04.031Z,78.43
2022-12-19T03:57:36.146Z,77.19
2022-12-19T04:00:07.774Z,77.28
2022-12-19T04:02:37.906Z,77.73
2022-12-19T04:05:10.846Z,78.15
2022-12-19T04:07:40.516Z,78.02
2022-12-19T04:10:12.126Z,77.55
2022-12-19T04:12:43.538Z,75.87
2022-12-19T04:15:13.897Z,75.34
2022-12-19T04:17:44.981Z,74.43
2022-12-19T04:20:17.753Z,75.90
2022-12-19T04:22:51.804Z,76.50
2022-12-19T04:25:27.841Z,76.82
2022-12-19T04:28:00.207Z,77.41
2022-12-19T04:30:30.260Z,77.53
2022-12-19T04:33:07.936Z,78.18
2022-12-19T04:35:40.178Z,78.12
2022-12-19T04:38:09.677Z,79.30
2022-12-19T04:40:41.521Z,79.92
2022-12-19T04:43:11.674Z,80.33
2022-12-19T04:45:42.015Z,80.50
2022-12-19T04:48:12.019Z,79.96
2022-12-19T04:50:44.146Z,79.79
2022-12-19T04:53:13.804Z,80.65
2022-12-19T04:55:44.257Z,80.83
2022-12-19T04:58:18.945Z,79.00
2022-12-19T05:00:51.125Z,78.40
2022-12-19T05:03:20.688Z,77.98
2022-12-19T05:05:52.876Z,77.79
2022-12-19T05:08:22.445Z,78.91
2022-12-19T05:10:51.953Z,78.14
2022-12-19T05:13:21.524Z,76.95
2022-12-19T05:15:58.720Z,76.16
2022-12-19T05:18:28.287Z,75.39
2022-12-19T05:21:00.432Z,74.84
2022-12-19T05:23:30.074Z,75.00
2022-12-19T05:26:00.493Z,75.03
2022-12-19T05:28:30.196Z,76.20
2022-12-19T05:31:05.573Z,75.98
2022-12-19T05:33:35.131Z,76.55
2022-12-19T05:36:08.515Z,78.02
2022-12-19T05:38:38.283Z,77.21
2022-12-19T05:41:09.927Z,77.39
2022-12-19T05:43:39.501Z,76.88
2022-12-19T05:46:09.287Z,77.17
2022-12-19T05:48:39.193Z,77.32
2022-12-19T05:51:11.428Z,77.86
2022-12-19T05:53:41.680Z,76.61
2022-12-19T05:56:12.076Z,75.84
2022-12-19T05:58:41.886Z,75.49
2022-12-19T06:01:12.521Z,76.32
2022-12-19T06:03:42.148Z,76.85
2022-12-19T06:06:16.033Z,77.00
2022-12-19T06:08:45.618Z,77.48
2022-12-19T06:11:15.293Z,76.39
2022-12-19T06:13:44.791Z,76.89
2022-12-19T06:16:15.516Z,76.35
2022-12-19T06:18:45.970Z,75.66
2022-12-19T06:21:18.920Z,76.04
2022-12-19T06:23:48.573Z,76.15
2022-12-19T06:26:20.183Z,74.97
2022-12-19T06:28:49.976Z,75.71
2022-12-19T06:31:19.619Z,75.05
2022-12-19T06:33:49.099Z,75.61
2022-12-19T06:36:22.439Z,75.30
2022-12-19T06:38:52.274Z,76.07
2022-12-19T06:41:34.302Z,75.64
2022-12-19T06:44:04.451Z,75.65
2022-12-19T06:46:33.981Z,75.33
2022-12-19T06:49:03.622Z,74.35
2022-12-19T06:51:35.659Z,74.39
2022-12-19T06:54:05.155Z,73.78
2022-12-19T06:56:37.067Z,73.59
2022-12-19T06:59:06.576Z,74.08
2022-12-19T07:01:42.221Z,73.79
2022-12-19T07:04:11.942Z,74.79
2022-12-19T07:06:48.843Z,75.40
2022-12-19T07:09:18.755Z,74.93
2022-12-19T07:11:48.194Z,74.36
2022-12-19T07:14:17.685Z,74.26
2022-12-19T07:16:47.135Z,74.05
2022-12-19T07:19:16.778Z,73.65
2022-12-19T07:21:48.840Z,73.83
2022-12-19T07:24:18.285Z,74.91
2022-12-19T07:26:47.744Z,74.92
2022-12-19T07:29:17.175Z,74.39
2022-12-19T07:31:46.737Z,73.65
2022-12-19T07:34:16.291Z,73.61
2022-12-19T07:36:48.381Z,73.55
2022-12-19T07:39:17.818Z,73.37
2022-12-19T07:41:47.286Z,73.11
2022-12-19T07:44:16.753Z,73.52
2022-12-19T07:46:46.274Z,74.01
2022-12-19T07:49:19.658Z,74.31
2022-12-19T07:51:54.540Z,74.43
2022-12-19T07:54:23.961Z,74.05
2022-12-19T07:56:53.500Z,73.84
2022-12-19T07:59:28.942Z,73.55
2022-12-19T08:02:00.081Z,72.51
2022-12-19T08:04:29.626Z,72.67
2022-12-19T08:07:02.324Z,73.42
2022-12-19T08:09:31.848Z,73.73
2022-12-19T08:12:01.522Z,73.49
2022-12-19T08:14:31.027Z,73.74
2022-12-19T08:19:49.951Z,72.93
2022-12-19T08:22:21.989Z,72.39
2022-12-19T08:24:51.572Z,71.79
2022-12-19T08:27:21.258Z,71.72
2022-12-19T08:29:50.739Z,71.65
2022-12-19T08:32:21.408Z,72.12
2022-12-19T08:34:51.244Z,72.73
2022-12-19T08:37:23.395Z,73.52
2022-12-19T08:39:52.991Z,73.54
2022-12-19T08:42:22.528Z,73.74
2022-12-19T08:44:52.086Z,73.51
2022-12-19T08:47:21.605Z,73.21
2022-12-19T08:49:51.177Z,72.36
2022-12-19T08:52:23.587Z,73.03
2022-12-19T08:54:53.045Z,72.65
2022-12-19T08:57:22.495Z,71.61
2022-12-19T08:59:52.038Z,71.72
2022-12-19T09:02:22.657Z,71.53
2022-12-19T09:06:01.001Z,71.54
2022-12-19T09:07:44.457Z,72.09
2022-12-19T09:10:14.015Z,72.10
2022-12-19T09:12:45.371Z,71.69
2022-12-19T09:15:15.298Z,71.42
2022-12-19T09:17:44.807Z,71.18
2022-12-19T09:20:21.243Z,71.62
2022-12-19T09:22:55.331Z,71.17
2022-12-19T09:25:24.896Z,71.42
2022-12-19T09:28:26.390Z,71.34
2022-12-19T09:30:43.933Z,71.30
2022-12-19T09:33:13.576Z,70.91
2022-12-19T09:35:43.135Z,70.55
2022-12-19T09:38:15.230Z,70.87
2022-12-19T09:40:50.585Z,70.64
2022-12-19T09:43:23.755Z,70.60
2022-12-19T09:45:56.685Z,70.95
2022-12-19T09:48:26.571Z,70.27
2022-12-19T09:51:09.585Z,70.54
2022-12-19T09:53:54.497Z,70.40
2022-12-19T09:56:40.185Z,71.18
2022-12-19T09:59:17.173Z,70.83
2022-12-19T10:01:52.753Z,70.72
2022-12-19T10:04:22.432Z,70.40
2022-12-19T10:07:18.250Z,70.15
2022-12-19T10:12:18.076Z,70.21
2022-12-19T10:12:50.947Z,69.75
2022-12-19T10:15:26.012Z,69.67
2022-12-19T10:18:06.273Z,70.37
2022-12-19T10:20:38.528Z,71.22
2022-12-19T10:23:15.496Z,71.42
2022-12-19T10:25:59.729Z,71.17
2022-12-19T10:28:44.889Z,70.69
2022-12-19T10:31:21.832Z,71.03
2022-12-19T10:33:55.107Z,70.84
2022-12-19T10:36:48.558Z,70.94
2022-12-19T10:39:18.059Z,70.47
2022-12-19T10:41:50.224Z,70.60
2022-12-19T10:44:19.791Z,71.00
2022-12-19T10:46:50.045Z,71.24
2022-12-19T10:49:21.852Z,70.80
2022-12-19T10:52:01.628Z,70.56
2022-12-19T10:54:44.016Z,70.07
2022-12-19T10:57:27.059Z,70.16
2022-12-19T11:00:00.731Z,70.39
2022-12-19T11:02:37.339Z,69.70
2022-12-19T11:05:08.665Z,70.52
2022-12-19T11:07:38.231Z,70.23
2022-12-19T11:11:16.888Z,69.42
2022-12-19T11:18:13.822Z,69.35
2022-12-19T11:24:38.722Z,69.79
2022-12-19T11:29:15.184Z,69.96
2022-12-19T11:30:09.083Z,69.91
2022-12-19T11:30:42.998Z,70.98
2022-12-19T11:30:48.669Z,69.53
2022-12-19T11:34:06.049Z,70.24
2022-12-19T11:36:39.222Z,69.94
2022-12-19T11:39:08.854Z,69.84
2022-12-19T11:41:41.927Z,69.16
2022-12-19T11:44:14.624Z,69.17
2022-12-19T11:46:48.234Z,69.29
2022-12-19T11:49:24.240Z,70.15
2022-12-19T11:51:57.521Z,71.40
2022-12-19T11:54:28.407Z,72.55
2022-12-19T11:56:58.541Z,71.42
2022-12-19T11:59:32.313Z,71.50
2022-12-19T12:02:12.932Z,71.09
2022-12-19T12:05:04.406Z,70.40
2022-12-19T12:09:16.363Z,71.65
2022-12-19T12:16:12.552Z,71.58
2022-12-19T12:21:07.922Z,71.43
2022-12-19T12:30:37.285Z,71.90
2022-12-19T12:31:19.239Z,72.52
2022-12-19T12:31:50.629Z,72.24
2022-12-19T12:31:50.992Z,72.77
2022-12-19T12:31:52.735Z,73.42
2022-12-19T12:31:58.475Z,73.69
2022-12-19T12:35:32.769Z,74.00
2022-12-19T12:39:24.332Z,73.61
2022-12-19T12:42:07.536Z,73.29
2022-12-19T12:44:44.841Z,73.23
2022-12-19T12:47:18.199Z,71.93
2022-12-19T12:49:48.523Z,71.23
2022-12-19T12:52:22.273Z,71.08
2022-12-19T12:54:51.856Z,71.37
2022-12-19T12:57:22.839Z,71.04
2022-12-19T12:59:53.747Z,70.75
2022-12-19T13:02:24.683Z,70.47
2022-12-19T13:04:58.130Z,70.90
2022-12-19T13:07:39.023Z,70.93
2022-12-19T13:10:20.523Z,71.14
2022-12-19T13:13:04.394Z,70.39
2022-12-19T13:15:44.124Z,70.27
2022-12-19T13:18:32.705Z,70.14
2022-12-19T13:21:02.808Z,70.26
2022-12-19T13:23:50.927Z,70.23
2022-12-19T13:26:49.356Z,70.90
2022-12-19T13:29:33.529Z,70.65
2022-12-19T13:32:13.621Z,70.19
2022-12-19T13:34:50.486Z,70.65
2022-12-19T13:39:47.687Z,71.38
2022-12-19T13:40:33.063Z,71.58
2022-12-19T13:43:17.791Z,71.13
2022-12-19T13:45:51.709Z,72.00
2022-12-19T13:48:27.294Z,72.66
2022-12-19T13:50:56.812Z,72.79
2022-12-19T13:53:27.898Z,72.68
2022-12-19T13:56:01.467Z,71.99
2022-12-19T13:58:32.475Z,72.22
2022-12-19T14:01:03.879Z,72.10
2022-12-19T14:03:38.826Z,72.00
2022-12-19T14:06:17.542Z,71.19
2022-12-19T14:08:59.203Z,70.88
2022-12-19T14:13:44.921Z,70.71
2022-12-19T14:14:45.021Z,70.27
2022-12-19T14:17:16.212Z,70.44
2022-12-19T14:19:46.758Z,70.24
2022-12-19T14:22:24.691Z,69.99
2022-12-19T14:25:45.238Z,69.61
2022-12-19T14:28:19.528Z,69.77
2022-12-19T14:30:43.571Z,70.06
2022-12-19T14:33:44.501Z,70.02
2022-12-19T14:36:16.018Z,69.80
2022-12-19T14:39:25.475Z,69.79
2022-12-19T14:42:00.400Z,69.73
2022-12-19T14:52:51.901Z,69.56
2022-12-19T14:54:14.924Z,69.32
2022-12-19T14:54:24.479Z,69.14
2022-12-19T14:54:47.597Z,69.64
2022-12-19T14:59:04.855Z,69.58
2022-12-19T15:01:37.160Z,69.35
2022-12-19T15:04:50.230Z,69.62
2022-12-19T15:07:08.494Z,69.48
2022-12-19T15:11:01.105Z,69.46
2022-12-19T15:14:46.907Z,69.27
2022-12-19T15:15:42.527Z,69.53
2022-12-19T15:18:25.772Z,69.68
2022-12-19T15:20:56.311Z,69.65
2022-12-19T15:23:26.141Z,69.76
2022-12-19T15:26:05.062Z,69.72
2022-12-19T15:28:40.100Z,69.22
2022-12-19T15:31:15.760Z,69.13
2022-12-19T15:34:14.890Z,69.29
2022-12-19T15:36:37.237Z,69.39
2022-12-19T15:39:06.948Z,69.56
2022-12-19T15:41:36.426Z,69.90
2022-12-19T15:44:08.754Z,70.00
2022-12-19T15:46:44.473Z,69.68
2022-12-19T15:49:19.852Z,69.85
2022-12-19T15:51:49.351Z,69.48
2022-12-19T15:57:09.381Z,70.16
2022-12-19T15:59:39.764Z,69.93
2022-12-19T16:02:18.562Z,69.81
2022-12-19T16:04:51.263Z,70.06
2022-12-19T16:07:21.879Z,70.06
2022-12-19T16:09:52.808Z,70.18
2022-12-19T16:12:24.887Z,70.08
2022-12-19T16:14:57.897Z,69.62
2022-12-19T16:17:27.700Z,69.63
2022-12-19T16:19:59.788Z,69.97
2022-12-19T16:22:30.370Z,70.07
2022-12-19T16:24:59.869Z,70.21
2022-12-19T16:27:29.976Z,69.81
2022-12-19T16:29:59.948Z,69.61
2022-12-19T16:32:29.407Z,69.68
2022-12-19T16:35:01.503Z,70.21
2022-12-19T16:37:32.589Z,70.19
2022-12-19T16:40:02.266Z,69.67
2022-12-19T16:42:31.770Z,69.72
2022-12-19T16:45:01.188Z,69.87
2022-12-19T16:47:30.801Z,70.15
2022-12-19T16:50:02.975Z,70.18
2022-12-19T16:52:34.980Z,70.19
2022-12-19T16:55:08.923Z,69.90
2022-12-19T16:57:38.350Z,69.47
2022-12-19T17:00:11.108Z,69.60
2022-12-19T17:02:43.861Z,69.85
2022-12-19T17:05:23.932Z,69.37
2022-12-19T17:07:53.564Z,69.40
2022-12-19T17:10:26.385Z,69.53
2022-12-19T17:12:56.112Z,69.75
2022-12-19T17:15:28.164Z,69.85
2022-12-19T17:17:59.159Z,69.72
2022-12-19T17:20:31.484Z,69.33
2022-12-19T17:23:01.005Z,69.39
2022-12-19T17:25:30.468Z,69.79
2022-12-19T17:27:59.895Z,69.95
2022-12-19T17:30:29.403Z,69.94
2022-12-19T17:32:58.940Z,69.68
2022-12-19T17:35:31.014Z,69.73
2022-12-19T17:38:00.687Z,69.56
2022-12-19T17:40:31.116Z,69.84
2022-12-19T17:43:00.726Z,69.71
2022-12-19T17:45:31.596Z,69.71
2022-12-19T17:48:03.176Z,69.64
2022-12-19T17:50:37.990Z,69.59
2022-12-19T17:53:08.492Z,69.24
2022-12-19T17:55:38.043Z,69.30
2022-12-19T17:58:08.034Z,69.46
2022-12-19T18:00:37.606Z,69.59
2022-12-19T18:03:12.977Z,69.46
2022-12-19T18:05:45.523Z,69.66
2022-12-19T18:08:27.284Z,69.41
2022-12-19T18:10:57.102Z,69.33
2022-12-19T18:13:26.596Z,69.52
2022-12-19T18:15:57.089Z,69.09
2022-12-19T18:18:29.309Z,69.14
2022-12-19T18:21:01.564Z,69.61
2022-12-19T18:23:31.135Z,69.69
2022-12-19T18:26:02.162Z,69.93
2022-12-19T18:28:32.645Z,69.94
2022-12-19T18:31:03.293Z,69.95
2022-12-19T18:33:35.794Z,70.04
2022-12-19T18:36:08.414Z,70.02
2022-12-19T18:38:37.885Z,70.01
2022-12-19T18:41:07.669Z,70.10
2022-12-19T18:43:37.162Z,69.80
2022-12-19T18:46:07.071Z,69.83
2022-12-19T18:48:37.142Z,70.84
2022-12-19T18:51:09.319Z,70.32
2022-12-19T18:53:38.912Z,69.71
2022-12-19T18:56:08.796Z,69.96
2022-12-19T18:58:38.315Z,69.22
2022-12-19T19:01:08.700Z,69.45
2022-12-19T19:03:39.158Z,69.59
2022-12-19T19:06:16.782Z,69.65
2022-12-19T19:08:46.280Z,69.99
2022-12-19T19:11:15.746Z,70.10
2022-12-19T19:13:45.270Z,69.89
2022-12-19T19:16:17.866Z,70.13
2022-12-19T19:18:47.553Z,70.10
2022-12-19T19:21:19.581Z,70.27
2022-12-19T19:23:50.323Z,71.06
2022-12-19T19:26:19.787Z,70.99
2022-12-19T19:28:52.564Z,71.67
2022-12-19T19:31:23.461Z,72.58
2022-12-19T19:33:55.418Z,73.09
2022-12-19T19:36:29.239Z,73.01
2022-12-19T19:38:58.931Z,73.06
2022-12-19T19:41:30.166Z,73.20
2022-12-19T19:43:59.927Z,73.30
2022-12-19T19:46:29.744Z,73.27
2022-12-19T19:48:59.698Z,73.30
2022-12-19T19:51:32.271Z,72.82
2022-12-19T19:54:01.733Z,72.49
2022-12-19T19:56:31.181Z,71.72
2022-12-19T19:59:00.763Z,70.78
2022-12-19T20:01:31.014Z,70.30
2022-12-19T20:04:00.617Z,70.25
2022-12-19T20:06:32.757Z,70.63
2022-12-19T20:09:02.359Z,70.66
2022-12-19T20:11:31.871Z,70.48
2022-12-19T20:14:01.308Z,71.40
2022-12-19T20:16:30.846Z,70.63
2022-12-19T20:19:00.347Z,69.90
2022-12-19T20:21:33.427Z,70.27
2022-12-19T20:24:02.865Z,70.33
2022-12-19T20:26:32.344Z,69.76
2022-12-19T20:29:01.806Z,69.73
2022-12-19T20:31:32.495Z,69.52
2022-12-19T20:34:02.145Z,69.46
2022-12-19T20:36:34.235Z,69.33
2022-12-19T20:39:03.709Z,69.38
2022-12-19T20:41:33.673Z,69.21
2022-12-19T20:44:03.147Z,69.43
2022-12-19T20:46:32.760Z,69.41
2022-12-19T20:49:02.314Z,69.36
2022-12-19T20:51:34.377Z,69.45
2022-12-19T20:54:04.794Z,69.15
2022-12-19T20:56:35.208Z,69.08
2022-12-19T20:59:04.736Z,69.23
2022-12-19T21:01:34.374Z,69.00
2022-12-19T21:04:04.068Z,69.53
2022-12-19T21:06:38.026Z,69.77
2022-12-19T21:09:07.667Z,69.58
2022-12-19T21:11:37.323Z,69.34
2022-12-19T21:14:08.026Z,69.34
2022-12-19T21:16:37.950Z,69.32
2022-12-19T21:19:07.568Z,69.83
2022-12-19T21:21:39.733Z,69.99
2022-12-19T21:24:09.563Z,69.64
2022-12-19T21:26:39.074Z,69.79
2022-12-19T21:29:08.531Z,69.46
2022-12-19T21:31:38.066Z,69.53
2022-12-19T21:34:07.531Z,70.00
2022-12-19T21:36:39.666Z,70.30
2022-12-19T21:39:09.179Z,70.07
2022-12-19T21:41:38.669Z,69.95
2022-12-19T21:44:08.145Z,70.01
2022-12-19T21:46:38.151Z,69.75
2022-12-19T21:49:08.786Z,69.99
2022-12-19T21:51:43.562Z,70.37
2022-12-19T21:54:13.012Z,71.47
2022-12-19T21:56:42.764Z,71.89
2022-12-19T21:59:14.185Z,70.78
2022-12-19T22:01:43.952Z,70.32
2022-12-19T22:04:14.716Z,70.43
2022-12-19T22:06:46.845Z,70.29
2022-12-19T22:09:17.859Z,69.97
2022-12-19T22:11:47.192Z,69.73
2022-12-19T22:14:17.087Z,69.80
2022-12-19T22:16:46.696Z,70.01
2022-12-19T22:19:16.460Z,69.74
2022-12-19T22:21:48.782Z,69.91
2022-12-19T22:24:20.004Z,69.76
2022-12-19T22:26:49.518Z,69.78
2022-12-19T22:29:19.329Z,69.80
2022-12-19T22:31:49.632Z,69.94
2022-12-19T22:34:20.106Z,69.63
2022-12-19T22:36:53.131Z,69.33
2022-12-19T22:39:22.797Z,69.47
2022-12-19T22:41:52.229Z,69.50
2022-12-19T22:44:23.261Z,69.04
2022-12-19T22:46:52.452Z,69.01
2022-12-19T22:49:21.945Z,69.72
2022-12-19T22:51:53.988Z,69.78
2022-12-19T22:54:23.440Z,69.98
2022-12-19T22:56:53.386Z,70.14
2022-12-19T22:59:22.929Z,69.66
2022-12-19T23:01:53.031Z,69.38
2022-12-19T23:04:22.869Z,69.44
2022-12-19T23:06:55.027Z,69.63
2022-12-19T23:09:24.491Z,69.95
2022-12-19T23:11:54.255Z,69.75
2022-12-19T23:14:23.831Z,69.79
2022-12-19T23:16:53.465Z,69.65
2022-12-19T23:19:23.051Z,69.68
2022-12-19T23:21:55.349Z,69.68
2022-12-19T23:24:24.891Z,69.61
2022-12-19T23:26:55.778Z,69.66
2022-12-19T23:29:25.596Z,69.56
2022-12-19T23:31:55.165Z,69.46
2022-12-19T23:34:24.763Z,69.60
2022-12-19T23:37:12.935Z,69.27
2022-12-19T23:39:42.708Z,69.41
2022-12-19T23:42:12.250Z,69.35
2022-12-19T23:44:41.943Z,69.64
2022-12-19T23:47:11.489Z,70.96
2022-12-19T23:49:41.413Z,70.94
2022-12-19T23:52:13.573Z,70.54
2022-12-19T23:54:43.106Z,69.87
2022-12-19T23:57:12.643Z,69.72
2022-12-19T23:59:42.218Z,69.77
